Startpagina
METAR-TAF:

METAR-TAF

Vliegvelden :

Soldotna, Alaska, Verenigde Staten

breedte: 60-29N, lengte: 151-02W, hoogte: 33 m

Actueel weer

Dit bericht is 34 minuten geleden gemaakt, om 01:56 UTC
Wind 6 kt uit het westzuidwesten
Temperatuur 14°C
Vochtigheid 63%
Druk 1024 hPa
Zicht: 16.1 km
Geheel bewolkt op 7000 ft

METAR: PASX 180156Z AUTO 25006KT 10SM OVC070 14/07 A3023 RMK AO2 SLP248 T01440067

Tijdstip: 18:30 (02:30 UTC)


TAF: ontbreekt

Waarnemingen en weersverwachtingen van meer dan 4000 vliegvelden (METAR en TAF).

De beschikbare stations zijn de gele en rode punten op de kaart.

Ga met uw muis naar het station om de naam te zien.

Klik dan om waarnemingen en weersverwachtingen te zien.

kaart wijzigen: klik op de groene knoppen met een zwart kruis om in te zoomen, op de groene knop met een streepje om uit te zoomen of op de groene pijlen voor aangrenzende kaarten.


METAR-TAF: